Millville, Massachusetts
Current Conditions -  °F | °C
As of 3:35 PM on Saturday 25 Oct 2014 (Local Time) from KSFZ Reporting Station
Clear Clear  
Wind Chill: 64°   Ceiling: Unl
Heat Index: 64°   Visibility: 10mi
Dew Point: 37°   Wind: 12mph
Humidity: 37%   Direction: 250°WSW
Pressure: 29.63"   Gusts: 17mph
Location:  42.03°N, 71.58°W
Report Text: KSFZ 251935Z 25010G15KT 200V280 10SM CLR 18/03 A2963 RMK AO1
Loading
Personal Weather Stations






























Interactive Weather Map
Tropical Storm Tracking
New forecast layout! Learn more

10-Day Weather Forecast

Advertisements
Track Severe Weather on mobile